N12973 KMSP-CYWG
Flight info
| Callsign | N12973 |
|---|---|
| Flight time | N/A |
| Altitude | VFR/035 |
| Route | SOUTH |
| Aircraft | C172/L-DOV/C |
Departure
| Time | N/A |
|---|---|
| Airport | Minneapolis–Saint Paul International Airport / Wold–Chamberlain Field (KMSP) |
Arrival
| Time | 2026-05-07 05:53 |
|---|---|
| Airport | Winnipeg / James Armstrong Richardson International Airport (CYWG) |
| Time | Latitude | Longitude | Altitude | Speed | Heading |
|---|---|---|---|---|---|
| 2026-05-07 05:46 | 49.94163 | -97.22751 | 1974 ft | 104 kts | 202° |
| 2026-05-07 05:47 | 49.93443 | -97.22950 | 1994 ft | 109 kts | 197° |
| 2026-05-07 05:47 | 49.92776 | -97.23329 | 2085 ft | 95 kts | 181° |
| 2026-05-07 05:47 | 49.92093 | -97.23400 | 2137 ft | 103 kts | 173° |
| 2026-05-07 05:47 | 49.91423 | -97.22978 | 2046 ft | 105 kts | 146° |
| 2026-05-07 05:48 | 49.90882 | -97.22275 | 2033 ft | 102 kts | 134° |
| 2026-05-07 05:48 | 49.90430 | -97.21542 | 2310 ft | 86 kts | 105° |
| 2026-05-07 05:48 | 49.90854 | -97.20931 | 2164 ft | 114 kts | 351° |
| 2026-05-07 05:48 | 49.91165 | -97.21926 | 2111 ft | 118 kts | 229° |
| 2026-05-07 05:49 | 49.90621 | -97.22626 | 2369 ft | 105 kts | 211° |
| 2026-05-07 05:49 | 49.89985 | -97.23202 | 2522 ft | 100 kts | 201° |
| 2026-05-07 05:49 | 49.89336 | -97.23702 | 2550 ft | 111 kts | 208° |
| 2026-05-07 05:49 | 49.88930 | -97.24505 | 2390 ft | 96 kts | 286° |
| 2026-05-07 05:50 | 49.89239 | -97.25356 | 2135 ft | 89 kts | 301° |
| 2026-05-07 05:50 | 49.89635 | -97.26176 | 1956 ft | 99 kts | 305° |
| 2026-05-07 05:50 | 49.90087 | -97.26992 | 1953 ft | 99 kts | 319° |
| 2026-05-07 05:50 | 49.90550 | -97.27810 | 1926 ft | 103 kts | 309° |
| 2026-05-07 05:51 | 49.91094 | -97.28481 | 1944 ft | 99 kts | 325° |
| 2026-05-07 05:51 | 49.91610 | -97.29021 | 1879 ft | 79 kts | 355° |
| 2026-05-07 05:51 | 49.91946 | -97.28575 | 1686 ft | 63 kts | 65° |
| 2026-05-07 05:51 | 49.92175 | -97.28012 | 1460 ft | 61 kts | 67° |
| 2026-05-07 05:52 | 49.92370 | -97.27437 | 1269 ft | 61 kts | 63° |
| 2026-05-07 05:52 | 49.92410 | -97.26872 | 1183 ft | 60 kts | 129° |
| 2026-05-07 05:52 | 49.92144 | -97.26409 | 1113 ft | 59 kts | 126° |
| 2026-05-07 05:52 | 49.91843 | -97.25996 | 1006 ft | 56 kts | 132° |
| 2026-05-07 05:53 | 49.91561 | -97.25591 | 865 ft | 54 kts | 135° |
| 2026-05-07 05:53 | 49.91297 | -97.25224 | 777 ft | 45 kts | 136° |
| 2026-05-07 05:53 | 49.91281 | -97.25087 | 775 ft | 10 kts | 43° |
| 2026-05-07 05:53 | 49.91302 | -97.25057 | 775 ft | 1 kts | 45° |
| 2026-05-07 05:56 | 49.91338 | -97.24987 | 775 ft | 18 kts | 65° |
| 2026-05-07 05:57 | 49.91326 | -97.24721 | 775 ft | 32 kts | 99° |
| 2026-05-07 05:57 | 49.91292 | -97.24369 | 774 ft | 32 kts | 97° |
| 2026-05-07 05:57 | 49.91268 | -97.24112 | 773 ft | 0 kts | 97° |
| 2026-05-07 05:58 | 49.91266 | -97.24092 | 773 ft | 12 kts | 97° |
| 2026-05-07 05:59 | 49.91245 | -97.23880 | 771 ft | 22 kts | 99° |
| 2026-05-07 05:59 | 49.91213 | -97.23659 | 771 ft | 10 kts | 103° |
| 2026-05-07 05:59 | 49.91212 | -97.23653 | 771 ft | 0 kts | 102° |
| 2026-05-07 05:59 | 49.91183 | -97.23582 | 771 ft | 12 kts | 147° |
| 2026-05-07 06:00 | 49.91111 | -97.23528 | 770 ft | 23 kts | 158° |
| 2026-05-07 06:00 | 49.90942 | -97.23408 | 768 ft | 26 kts | 152° |
| 2026-05-07 06:00 | 49.90850 | -97.23409 | 768 ft | 13 kts | 251° |
| 2026-05-07 06:00 | 49.90829 | -97.23573 | 768 ft | 20 kts | 261° |
| 2026-05-07 06:01 | 49.90814 | -97.23686 | 768 ft | 0 kts | 258° |
| 2026-05-07 06:03 | 49.90813 | -97.23700 | 768 ft | 4 kts | 264° |
| 2026-05-07 06:03 | 49.90764 | -97.23833 | 768 ft | 21 kts | 224° |
| 2026-05-07 06:03 | 49.90594 | -97.23928 | 768 ft | 33 kts | 187° |
| 2026-05-07 06:03 | 49.90405 | -97.23967 | 768 ft | 16 kts | 162° |
| 2026-05-07 06:04 | 49.90314 | -97.23849 | 768 ft | 21 kts | 127° |
| 2026-05-07 06:04 | 49.90241 | -97.23630 | 765 ft | 19 kts | 107° |
| 2026-05-07 06:04 | 49.90205 | -97.23465 | 764 ft | 19 kts | 106° |
| 2026-05-07 06:04 | 49.90161 | -97.23262 | 762 ft | 15 kts | 107° |
| 2026-05-07 06:05 | 49.90177 | -97.23094 | 762 ft | 13 kts | 80° |
| 2026-05-07 06:05 | 49.90188 | -97.22962 | 761 ft | 15 kts | 91° |
| 2026-05-07 06:05 | 49.90144 | -97.22774 | 758 ft | 16 kts | 129° |
| 2026-05-07 06:05 | 49.90039 | -97.22779 | 758 ft | 20 kts | 200° |
| 2026-05-07 06:06 | 49.89918 | -97.22864 | 759 ft | 16 kts | 251° |
| 2026-05-07 06:06 | 49.89984 | -97.23005 | 761 ft | 21 kts | 321° |
| 2026-05-07 06:06 | 49.90084 | -97.23141 | 761 ft | 21 kts | 318° |
| 2026-05-07 06:06 | 49.90174 | -97.23089 | 762 ft | 20 kts | 67° |
| 2026-05-07 06:07 | 49.90170 | -97.22869 | 759 ft | 20 kts | 107° |
| 2026-05-07 06:07 | 49.90079 | -97.22760 | 758 ft | 18 kts | 192° |
| 2026-05-07 06:07 | 49.89941 | -97.22829 | 758 ft | 19 kts | 200° |
| 2026-05-07 06:07 | 49.89839 | -97.22768 | 758 ft | 17 kts | 137° |
| 2026-05-07 06:08 | 49.89720 | -97.22559 | 758 ft | 25 kts | 133° |
| 2026-05-07 06:08 | 49.89621 | -97.22410 | 758 ft | 19 kts | 133° |
| 2026-05-07 06:08 | 49.89511 | -97.22268 | 758 ft | 23 kts | 152° |
| 2026-05-07 06:08 | 49.89382 | -97.22201 | 758 ft | 15 kts | 154° |